createdAt,value
2019-05-01T00:01:04.080Z,78.93
2019-05-01T00:03:34.532Z,79.16
2019-05-01T00:06:04.824Z,78.99
2019-05-01T00:08:33.528Z,78.61
2019-05-01T00:11:02.312Z,78.36
2019-05-01T00:13:31.028Z,78.35
2019-05-01T00:16:00.240Z,77.92
2019-05-01T00:18:29.122Z,77.86
2019-05-01T00:20:58.427Z,77.83
2019-05-01T00:23:27.140Z,77.88
2019-05-01T00:25:55.947Z,77.56
2019-05-01T00:28:24.922Z,78.25
2019-05-01T00:30:53.635Z,77.92
2019-05-01T00:33:22.394Z,77.88
2019-05-01T00:35:51.105Z,77.96
2019-05-01T00:38:19.899Z,78.61
2019-05-01T00:40:48.812Z,79.08
2019-05-01T00:43:17.524Z,79.19
2019-05-01T00:45:46.233Z,79.34
2019-05-01T00:48:15.068Z,80.05
2019-05-01T00:50:43.779Z,80.39
2019-05-01T00:53:12.496Z,80.41
2019-05-01T00:55:45.603Z,80.57
2019-05-01T00:58:31.301Z,80.52
2019-05-01T01:01:01.686Z,80.22
2019-05-01T01:03:30.414Z,80.18
2019-05-01T01:05:59.112Z,79.82
2019-05-01T01:08:27.996Z,80.28
2019-05-01T01:10:56.704Z,80.11
2019-05-01T01:13:25.425Z,80.14
2019-05-01T01:15:54.201Z,79.24
2019-05-01T01:18:22.902Z,77.89
2019-05-01T01:20:51.624Z,77.29
2019-05-01T01:23:20.725Z,76.63
2019-05-01T01:25:49.534Z,77.06
2019-05-01T01:28:19.041Z,78.07
2019-05-01T01:30:56.221Z,79.02
2019-05-01T01:33:18.275Z,80.38
2019-05-01T01:35:47.087Z,81.37
2019-05-01T01:38:15.931Z,81.96
2019-05-01T01:40:44.887Z,82.34
2019-05-01T01:43:31.342Z,82.28
2019-05-01T01:46:01.631Z,82.06
2019-05-01T01:48:30.445Z,82.55
2019-05-01T01:50:59.900Z,82.42
2019-05-01T01:53:28.811Z,82.42
2019-05-01T01:55:57.725Z,82.39
2019-05-01T01:58:26.716Z,82.25
2019-05-01T02:01:13.399Z,82.27
2019-05-01T02:03:43.823Z,82.23
2019-05-01T02:06:13.190Z,83.04
2019-05-01T02:08:41.900Z,83.37
2019-05-01T02:11:11.084Z,83.83
2019-05-01T02:13:39.988Z,83.76
2019-05-01T02:16:08.812Z,84.08
2019-05-01T02:18:37.600Z,84.90
2019-05-01T02:21:06.413Z,85.46
2019-05-01T02:23:35.129Z,85.44
2019-05-01T02:26:04.107Z,84.78
2019-05-01T02:28:34.389Z,84.63
2019-05-01T02:31:08.378Z,84.26
2019-05-01T02:33:39.696Z,84.18
2019-05-01T02:36:10.123Z,84.00
2019-05-01T02:38:40.460Z,84.39
2019-05-01T02:41:12.199Z,84.89
2019-05-01T02:43:44.930Z,85.31
2019-05-01T02:46:15.752Z,85.42
2019-05-01T02:48:47.379Z,85.28
2019-05-01T02:51:16.955Z,85.69
2019-05-01T02:53:47.680Z,86.56
2019-05-01T02:56:26.387Z,87.06
2019-05-01T02:58:57.707Z,87.29
2019-05-01T03:01:44.633Z,87.88
2019-05-01T03:03:58.709Z,88.32
2019-05-01T03:06:30.122Z,88.56
2019-05-01T03:09:00.482Z,88.88
2019-05-01T03:11:30.622Z,89.21
2019-05-01T03:14:02.190Z,88.71
2019-05-01T03:16:33.738Z,88.91
2019-05-01T03:19:14.240Z,89.10
2019-05-01T03:22:00.784Z,89.20
2019-05-01T03:24:29.937Z,89.59
2019-05-01T03:26:59.263Z,90.29
2019-05-01T03:29:28.267Z,90.55
2019-05-01T03:32:15.278Z,90.67
2019-05-01T03:34:28.303Z,90.00
2019-05-01T03:36:57.021Z,89.83
2019-05-01T03:39:27.084Z,89.36
2019-05-01T03:41:56.893Z,89.59
2019-05-01T03:44:25.705Z,89.24
2019-05-01T03:46:54.798Z,88.63
2019-05-01T03:49:23.605Z,88.39
2019-05-01T03:51:52.477Z,88.19
2019-05-01T03:54:21.774Z,87.25
2019-05-01T03:56:50.588Z,87.22
2019-05-01T03:59:19.704Z,85.78
2019-05-01T04:01:50.121Z,85.52
2019-05-01T04:04:20.506Z,84.28
2019-05-01T04:06:49.625Z,83.53
2019-05-01T04:09:18.627Z,83.18
2019-05-01T04:11:47.736Z,82.81
2019-05-01T04:14:16.549Z,82.36
2019-05-01T04:16:47.299Z,82.69
2019-05-01T04:22:29.913Z,81.03
2019-05-01T04:24:59.034Z,80.28
2019-05-01T04:27:29.516Z,79.34
2019-05-01T04:30:01.024Z,78.73
2019-05-01T04:32:31.514Z,79.07
2019-05-01T04:35:18.853Z,79.17
2019-05-01T04:37:47.893Z,79.09
2019-05-01T04:40:19.035Z,78.36
2019-05-01T04:42:47.457Z,77.17
2019-05-01T04:45:16.982Z,74.80
2019-05-01T04:47:45.717Z,71.98
2019-05-01T04:50:14.646Z,71.19
2019-05-01T04:52:43.977Z,70.79
2019-05-01T04:55:12.792Z,70.41
2019-05-01T04:57:42.451Z,69.57
2019-05-01T05:00:11.410Z,68.76
2019-05-01T05:02:42.236Z,66.29
2019-05-01T05:05:12.880Z,63.49
2019-05-01T05:07:42.195Z,60.96
2019-05-01T05:10:10.906Z,59.08
2019-05-01T05:12:45.518Z,57.46
2019-05-01T05:15:19.855Z,54.93
2019-05-01T05:17:48.776Z,55.48
2019-05-01T05:20:17.831Z,55.44
2019-05-01T05:22:46.865Z,56.40
2019-05-01T05:25:15.688Z,55.32
2019-05-01T05:27:45.940Z,53.71
2019-05-01T05:30:14.792Z,53.94
2019-05-01T05:32:44.690Z,54.58
2019-05-01T05:35:15.158Z,53.72
2019-05-01T05:37:57.310Z,52.87
2019-05-01T05:40:30.122Z,53.99
2019-05-01T05:42:59.246Z,54.06
2019-05-01T05:45:28.106Z,55.33
2019-05-01T05:47:56.827Z,54.12
2019-05-01T05:50:27.631Z,53.74
2019-05-01T05:53:04.018Z,52.63
2019-05-01T05:55:37.714Z,52.23
2019-05-01T05:58:10.937Z,52.54
2019-05-01T06:00:59.140Z,52.23
2019-05-01T06:03:48.777Z,51.91
2019-05-01T06:06:21.972Z,50.66
2019-05-01T06:08:56.302Z,51.15
2019-05-01T06:11:35.473Z,50.95
2019-05-01T06:14:15.359Z,51.71
2019-05-01T06:16:52.141Z,50.05
2019-05-01T06:19:39.569Z,50.41
2019-05-01T06:22:13.540Z,50.47
2019-05-01T06:24:47.286Z,49.75
2019-05-01T06:27:16.914Z,49.66
2019-05-01T06:29:45.955Z,49.84
2019-05-01T06:32:15.011Z,49.77
2019-05-01T06:34:44.000Z,50.58
2019-05-01T06:37:12.817Z,49.91
2019-05-01T06:39:42.768Z,50.10
2019-05-01T06:42:15.190Z,47.56
2019-05-01T06:44:54.760Z,46.27
2019-05-01T06:47:38.315Z,45.95
2019-05-01T06:50:26.116Z,46.06
2019-05-01T06:52:55.136Z,45.98
2019-05-01T06:55:27.201Z,46.15
2019-05-01T06:57:54.936Z,45.60
2019-05-01T07:00:23.665Z,44.60
2019-05-01T07:02:55.081Z,43.75
2019-05-01T07:05:24.577Z,47.58
2019-05-01T07:07:55.160Z,43.87
2019-05-01T07:10:31.421Z,42.86
2019-05-01T07:12:59.946Z,42.02
2019-05-01T07:15:28.465Z,42.06
2019-05-01T07:17:57.593Z,42.22
2019-05-01T07:20:34.195Z,41.63
2019-05-01T07:23:03.110Z,41.32
2019-05-01T07:25:34.947Z,42.56
2019-05-01T07:28:02.339Z,41.38
2019-05-01T07:30:43.064Z,41.65
2019-05-01T07:33:16.761Z,42.32
2019-05-01T07:35:45.128Z,42.89
2019-05-01T07:38:13.879Z,44.96
2019-05-01T07:40:43.195Z,41.81
2019-05-01T07:43:23.926Z,41.86
2019-05-01T07:46:04.159Z,42.16
2019-05-01T07:48:41.291Z,42.57
2019-05-01T07:51:08.911Z,41.73
2019-05-01T07:53:38.200Z,42.22
2019-05-01T07:56:07.823Z,42.75
2019-05-01T07:58:37.899Z,44.07
2019-05-01T08:01:18.219Z,42.03
2019-05-01T08:03:45.024Z,42.38
2019-05-01T08:06:16.393Z,40.39
2019-05-01T08:08:44.178Z,40.49
2019-05-01T08:11:13.796Z,41.79
2019-05-01T08:13:43.562Z,39.88
2019-05-01T08:16:12.288Z,40.77
2019-05-01T08:18:45.683Z,42.76
2019-05-01T08:21:34.374Z,39.66
2019-05-01T08:24:04.567Z,41.38
2019-05-01T08:26:33.290Z,38.91
2019-05-01T08:29:19.776Z,39.51
2019-05-01T08:31:52.834Z,40.05
2019-05-01T08:34:33.405Z,40.86
2019-05-01T08:37:02.117Z,40.02
2019-05-01T08:39:30.862Z,38.34
2019-05-01T08:42:02.925Z,39.14
2019-05-01T08:44:31.744Z,39.58
2019-05-01T08:47:14.487Z,37.76
2019-05-01T08:49:51.018Z,37.98
2019-05-01T08:52:20.272Z,39.30
2019-05-01T08:54:48.998Z,38.93
2019-05-01T08:57:17.727Z,39.43
2019-05-01T08:59:46.705Z,38.19
2019-05-01T09:02:15.403Z,36.56
2019-05-01T09:04:44.128Z,37.02
2019-05-01T09:07:14.680Z,37.45
2019-05-01T09:09:45.446Z,38.17
2019-05-01T09:12:14.663Z,38.33
2019-05-01T09:14:43.442Z,38.54
2019-05-01T09:17:12.162Z,36.26
2019-05-01T09:19:40.890Z,36.46
2019-05-01T09:22:09.744Z,36.53
2019-05-01T09:24:38.455Z,34.49
2019-05-01T09:27:24.023Z,36.02
2019-05-01T09:29:53.366Z,33.43
2019-05-01T09:32:22.186Z,32.51
2019-05-01T09:34:50.976Z,34.71
2019-05-01T09:37:19.700Z,31.41
2019-05-01T09:39:48.526Z,33.08
2019-05-01T09:42:22.897Z,33.55
2019-05-01T09:44:48.027Z,31.59
2019-05-01T09:47:16.845Z,31.95
2019-05-01T09:49:48.679Z,34.15
2019-05-01T09:52:29.980Z,31.78
2019-05-01T09:55:01.158Z,29.66
2019-05-01T09:57:29.882Z,29.80
2019-05-01T09:59:58.607Z,30.97
2019-05-01T10:02:27.447Z,29.80
2019-05-01T10:04:56.173Z,31.45
2019-05-01T10:07:28.862Z,29.75
2019-05-01T10:09:55.402Z,30.59
2019-05-01T10:12:24.124Z,30.03
2019-05-01T10:14:52.952Z,30.80
2019-05-01T10:17:21.830Z,29.51
2019-05-01T10:19:50.551Z,30.71
2019-05-01T10:22:19.311Z,29.59
2019-05-01T10:24:48.941Z,29.47
2019-05-01T10:27:19.224Z,28.84
2019-05-01T10:29:49.511Z,30.78
2019-05-01T10:32:23.239Z,29.41
2019-05-01T10:34:56.421Z,27.66
2019-05-01T10:37:28.519Z,28.74
2019-05-01T10:39:55.426Z,28.70
2019-05-01T10:42:24.289Z,29.18
2019-05-01T10:44:53.022Z,29.39
2019-05-01T10:47:21.847Z,28.73
2019-05-01T10:49:50.565Z,29.25
2019-05-01T10:52:19.277Z,29.17
2019-05-01T10:54:49.033Z,28.78
2019-05-01T10:57:17.753Z,29.84
2019-05-01T10:59:46.525Z,28.61
2019-05-01T11:02:16.917Z,29.92
2019-05-01T11:04:45.635Z,28.63
2019-05-01T11:07:14.348Z,30.85
2019-05-01T11:09:43.204Z,28.65
2019-05-01T11:12:11.915Z,29.79
2019-05-01T11:14:40.628Z,29.13
2019-05-01T11:17:09.588Z,28.96
2019-05-01T11:19:38.306Z,29.50
2019-05-01T11:22:07.034Z,29.35
2019-05-01T11:24:35.822Z,30.09
2019-05-01T11:27:04.541Z,29.16
2019-05-01T11:29:33.257Z,30.30
2019-05-01T11:32:09.431Z,29.59
2019-05-01T11:34:45.733Z,29.37
2019-05-01T11:37:33.454Z,27.89
2019-05-01T11:40:12.613Z,29.06
2019-05-01T11:42:42.296Z,28.03
2019-05-01T11:45:11.814Z,27.84
2019-05-01T11:47:40.531Z,27.38
2019-05-01T11:50:09.415Z,28.54
2019-05-01T11:52:38.141Z,28.20
2019-05-01T11:55:07.106Z,28.15
2019-05-01T11:57:35.946Z,30.73
2019-05-01T12:00:14.339Z,29.61
2019-05-01T12:02:43.194Z,29.36
2019-05-01T12:05:12.120Z,28.34
2019-05-01T12:07:40.837Z,28.23
2019-05-01T12:10:09.803Z,28.81
2019-05-01T12:12:38.524Z,27.48
2019-05-01T12:15:08.639Z,28.14
2019-05-01T12:17:39.936Z,28.64
2019-05-01T12:20:09.265Z,27.06
2019-05-01T12:22:37.987Z,29.09
2019-05-01T12:25:06.967Z,27.84
2019-05-01T12:27:35.688Z,28.46
2019-05-01T12:30:07.010Z,26.45
2019-05-01T12:32:35.977Z,26.44
2019-05-01T12:35:05.597Z,26.74
2019-05-01T12:37:36.192Z,27.39
2019-05-01T12:40:07.077Z,28.82
2019-05-01T12:42:36.203Z,27.52
2019-05-01T12:45:08.328Z,27.59
2019-05-01T12:47:38.777Z,27.97
2019-05-01T12:50:10.290Z,29.74
2019-05-01T12:52:43.894Z,27.74
2019-05-01T12:55:14.292Z,27.29
2019-05-01T12:57:43.016Z,27.16
2019-05-01T13:00:19.819Z,30.81
2019-05-01T13:02:49.759Z,28.27
2019-05-01T13:05:18.467Z,28.55
2019-05-01T13:07:47.306Z,25.98
2019-05-01T13:10:16.024Z,25.96
2019-05-01T13:12:44.740Z,28.22
2019-05-01T13:15:13.759Z,26.32
2019-05-01T13:17:42.490Z,26.71
2019-05-01T13:20:11.209Z,27.88
2019-05-01T13:22:40.083Z,26.94
2019-05-01T13:25:08.905Z,27.42
2019-05-01T13:27:39.194Z,26.75
2019-05-01T13:30:20.264Z,27.61
2019-05-01T13:32:53.302Z,26.84
2019-05-01T13:35:22.014Z,25.90
2019-05-01T13:37:50.887Z,25.98
2019-05-01T13:40:20.302Z,26.10
2019-05-01T13:42:49.029Z,28.50
2019-05-01T13:45:18.202Z,26.15
2019-05-01T13:47:46.935Z,26.87
2019-05-01T13:50:15.765Z,27.43
2019-05-01T13:52:44.630Z,27.48
2019-05-01T13:55:13.747Z,25.43
2019-05-01T13:57:42.467Z,24.82
2019-05-01T14:00:12.646Z,25.54
2019-05-01T14:02:41.624Z,25.17
2019-05-01T14:05:10.631Z,25.28
2019-05-01T14:07:39.635Z,25.57
2019-05-01T14:10:08.651Z,24.73
2019-05-01T14:12:37.364Z,25.63
2019-05-01T14:15:06.357Z,27.65
2019-05-01T14:17:35.075Z,28.00
2019-05-01T14:20:08.693Z,27.46
2019-05-01T14:22:39.862Z,27.61
2019-05-01T14:25:10.493Z,27.74
2019-05-01T14:27:39.234Z,26.64
2019-05-01T14:30:10.696Z,26.09
2019-05-01T14:32:39.415Z,26.74
2019-05-01T14:35:09.343Z,26.73
2019-05-01T14:37:38.211Z,26.02
2019-05-01T14:40:08.037Z,26.24
2019-05-01T14:42:36.758Z,26.17
2019-05-01T14:45:13.075Z,27.51
2019-05-01T14:47:41.789Z,28.22
2019-05-01T14:50:10.716Z,30.30
2019-05-01T14:52:39.468Z,29.51
2019-05-01T14:55:08.296Z,28.84
2019-05-01T14:57:37.015Z,29.88
2019-05-01T15:00:08.040Z,29.09
2019-05-01T15:02:36.769Z,30.29
2019-05-01T15:05:07.164Z,31.16
2019-05-01T15:07:43.364Z,30.71
2019-05-01T15:10:07.298Z,31.57
2019-05-01T15:12:36.022Z,30.24
2019-05-01T15:15:08.623Z,30.46
2019-05-01T15:17:38.915Z,31.21
2019-05-01T15:20:07.836Z,31.39
2019-05-01T15:22:36.589Z,31.77
2019-05-01T15:25:06.703Z,32.12
2019-05-01T15:27:35.425Z,33.25
2019-05-01T15:30:06.518Z,33.08
2019-05-01T15:32:35.231Z,33.30
2019-05-01T15:35:04.742Z,33.11
2019-05-01T15:37:35.325Z,34.30
2019-05-01T15:40:07.713Z,33.33
2019-05-01T15:42:38.240Z,33.39
2019-05-01T15:45:08.257Z,33.17
2019-05-01T15:47:36.974Z,34.20
2019-05-01T15:50:07.778Z,33.62
2019-05-01T15:52:36.499Z,33.69
2019-05-01T15:55:07.718Z,34.19
2019-05-01T15:57:36.499Z,35.45
2019-05-01T16:00:11.641Z,34.76
2019-05-01T16:02:40.353Z,34.97
2019-05-01T16:05:09.223Z,35.00
2019-05-01T16:07:37.991Z,34.87
2019-05-01T16:10:08.987Z,34.84
2019-05-01T16:12:39.416Z,34.85
2019-05-01T16:15:11.009Z,35.51
2019-05-01T16:17:39.736Z,35.07
2019-05-01T16:20:08.776Z,35.34
2019-05-01T16:22:37.496Z,36.16
2019-05-01T16:25:07.516Z,36.40
2019-05-01T16:27:36.370Z,36.73
2019-05-01T16:30:06.488Z,36.75
2019-05-01T16:32:35.307Z,37.19
2019-05-01T16:35:05.315Z,37.13
2019-05-01T16:37:34.132Z,38.38
2019-05-01T16:40:07.276Z,39.25
2019-05-01T16:42:36.261Z,38.97
2019-05-01T16:45:06.387Z,38.56
2019-05-01T16:47:35.105Z,39.08
2019-05-01T16:50:05.366Z,39.16
2019-05-01T16:52:35.084Z,39.22
2019-05-01T16:55:05.201Z,39.17
2019-05-01T16:57:33.992Z,39.21
2019-05-01T17:00:02.806Z,41.13
2019-05-01T17:02:33.199Z,42.13
2019-05-01T17:05:03.530Z,41.11
2019-05-01T17:07:36.550Z,41.64
2019-05-01T17:10:14.656Z,42.58
2019-05-01T17:12:44.946Z,43.45
2019-05-01T17:15:13.869Z,45.60
2019-05-01T17:17:43.643Z,44.98
2019-05-01T17:20:12.949Z,44.21
2019-05-01T17:22:41.685Z,45.14
2019-05-01T17:25:10.661Z,44.15
2019-05-01T17:27:39.384Z,44.19
2019-05-01T17:30:14.200Z,43.44
2019-05-01T17:32:46.919Z,44.33
2019-05-01T17:35:15.710Z,45.87
2019-05-01T17:37:44.445Z,44.48
2019-05-01T17:40:13.560Z,43.82
2019-05-01T17:42:42.287Z,44.17
2019-05-01T17:45:11.204Z,45.12
2019-05-01T17:47:39.965Z,46.09
2019-05-01T17:50:08.678Z,47.17
2019-05-01T17:52:37.403Z,46.62
2019-05-01T17:55:07.464Z,47.06
2019-05-01T17:57:36.174Z,48.65
2019-05-01T18:00:18.083Z,50.44
2019-05-01T18:02:48.367Z,51.34
2019-05-01T18:05:18.660Z,52.02
2019-05-01T18:07:47.448Z,52.57
2019-05-01T18:10:16.166Z,53.73
2019-05-01T18:12:44.932Z,54.58
2019-05-01T18:15:13.887Z,55.94
2019-05-01T18:17:42.607Z,56.37
2019-05-01T18:20:11.533Z,57.39
2019-05-01T18:22:57.980Z,57.72
2019-05-01T18:25:46.418Z,59.09
2019-05-01T18:28:25.078Z,60.37
2019-05-01T18:30:56.438Z,58.40
2019-05-01T18:33:25.998Z,58.37
2019-05-01T18:35:55.257Z,57.92
2019-05-01T18:38:34.819Z,58.53
2019-05-01T18:41:08.063Z,58.36
2019-05-01T18:43:36.779Z,59.59
2019-05-01T18:46:08.216Z,58.77
2019-05-01T18:48:37.111Z,59.20
2019-05-01T18:51:05.831Z,58.70
2019-05-01T18:53:34.557Z,59.65
2019-05-01T18:56:05.496Z,59.27
2019-05-01T18:58:33.831Z,60.07
2019-05-01T19:01:03.980Z,59.68
2019-05-01T19:03:37.158Z,59.43
2019-05-01T19:06:03.577Z,59.99
2019-05-01T19:08:32.305Z,60.13
2019-05-01T19:11:11.766Z,59.82
2019-05-01T19:13:32.141Z,61.01
2019-05-01T19:16:03.297Z,60.79
2019-05-01T19:18:32.795Z,60.14
2019-05-01T19:21:01.548Z,59.88
2019-05-01T19:23:33.208Z,59.03
2019-05-01T19:26:05.030Z,58.92
2019-05-01T19:28:31.240Z,59.58
2019-05-01T19:31:00.061Z,60.00
2019-05-01T19:33:28.928Z,60.07
2019-05-01T19:35:57.664Z,59.91
2019-05-01T19:38:29.505Z,57.93
2019-05-01T19:40:56.949Z,57.60
2019-05-01T19:43:25.667Z,57.46
2019-05-01T19:45:54.613Z,57.44
2019-05-01T19:48:23.434Z,58.32
2019-05-01T19:50:52.148Z,59.21
2019-05-01T19:53:20.978Z,57.56
2019-05-01T19:55:49.854Z,57.06
2019-05-01T19:58:18.577Z,56.92
2019-05-01T20:00:55.846Z,57.70
2019-05-01T20:03:25.138Z,57.55
2019-05-01T20:05:53.847Z,59.61
2019-05-01T20:08:22.713Z,59.60
2019-05-01T20:10:51.423Z,60.07
2019-05-01T20:13:20.148Z,60.48
2019-05-01T20:15:49.088Z,60.12
2019-05-01T20:18:18.014Z,60.49
2019-05-01T20:20:46.726Z,56.53
2019-05-01T20:23:15.546Z,58.68
2019-05-01T20:25:44.259Z,58.45
2019-05-01T20:28:12.977Z,57.84
2019-05-01T20:30:42.520Z,59.05
2019-05-01T20:33:11.294Z,60.07
2019-05-01T20:35:40.058Z,61.11
2019-05-01T20:38:08.896Z,61.59
2019-05-01T20:40:37.712Z,62.33
2019-05-01T20:43:07.333Z,62.37
2019-05-01T20:45:36.527Z,59.54
2019-05-01T20:48:05.378Z,61.20
2019-05-01T20:50:34.101Z,61.97
2019-05-01T20:53:03.704Z,61.18
2019-05-01T20:55:32.423Z,59.71
2019-05-01T20:58:21.388Z,59.53
2019-05-01T21:00:53.469Z,60.03
2019-05-01T21:03:22.312Z,59.77
2019-05-01T21:05:55.581Z,59.89
2019-05-01T21:08:29.062Z,60.69
2019-05-01T21:11:00.815Z,61.27
2019-05-01T21:13:29.548Z,60.79
2019-05-01T21:16:01.778Z,61.75
2019-05-01T21:18:28.702Z,61.31
2019-05-01T21:20:57.384Z,61.79
2019-05-01T21:23:26.115Z,61.25
2019-05-01T21:25:54.908Z,62.33
2019-05-01T21:28:24.088Z,60.97
2019-05-01T21:30:54.384Z,60.45
2019-05-01T21:33:23.881Z,59.65
2019-05-01T21:35:53.384Z,60.09
2019-05-01T21:38:22.096Z,60.24
2019-05-01T21:40:50.894Z,59.95
2019-05-01T21:43:19.619Z,60.73
2019-05-01T21:45:48.339Z,60.30
2019-05-01T21:48:17.085Z,61.15
2019-05-01T21:50:45.803Z,60.51
2019-05-01T21:53:14.515Z,60.38
2019-05-01T21:55:43.384Z,60.68
2019-05-01T21:58:12.101Z,61.60
2019-05-01T22:00:41.822Z,61.71
2019-05-01T22:03:12.203Z,61.64
2019-05-01T22:05:41.013Z,61.22
2019-05-01T22:08:09.735Z,61.92
2019-05-01T22:10:50.753Z,60.96
2019-05-01T22:13:09.109Z,61.45
2019-05-01T22:15:42.069Z,62.17
2019-05-01T22:18:11.573Z,61.76
2019-05-01T22:20:44.985Z,61.53
2019-05-01T22:23:17.099Z,62.47
2019-05-01T22:25:47.519Z,62.62
2019-05-01T22:28:23.620Z,62.92
2019-05-01T22:31:10.179Z,63.50
2019-05-01T22:33:40.226Z,63.28
2019-05-01T22:36:08.931Z,63.91
2019-05-01T22:38:37.648Z,64.23
2019-05-01T22:41:11.006Z,64.36
2019-05-01T22:43:39.723Z,64.85
2019-05-01T22:46:10.005Z,64.46
2019-05-01T22:48:38.791Z,64.56
2019-05-01T22:51:21.327Z,64.33
2019-05-01T22:53:51.798Z,65.02
2019-05-01T22:56:20.519Z,65.48
2019-05-01T22:58:49.234Z,65.49
2019-05-01T23:01:19.332Z,65.57
2019-05-01T23:03:49.783Z,65.68
2019-05-01T23:06:18.809Z,66.30
2019-05-01T23:08:47.861Z,66.15
2019-05-01T23:11:20.269Z,65.79
2019-05-01T23:13:47.050Z,65.98
2019-05-01T23:16:16.815Z,65.93
2019-05-01T23:18:47.077Z,65.96
2019-05-01T23:21:16.163Z,66.92
2019-05-01T23:23:44.977Z,66.74
2019-05-01T23:26:16.546Z,67.66
2019-05-01T23:28:44.335Z,67.07
2019-05-01T23:31:13.283Z,67.13
2019-05-01T23:33:45.752Z,66.95
2019-05-01T23:36:22.913Z,67.01
2019-05-01T23:38:42.915Z,67.46
2019-05-01T23:41:13.645Z,67.83
2019-05-01T23:43:42.367Z,67.72
2019-05-01T23:46:11.220Z,67.79
2019-05-01T23:48:39.941Z,67.25
2019-05-01T23:51:08.656Z,67.73
2019-05-01T23:53:37.418Z,68.27
2019-05-01T23:56:06.133Z,68.39
2019-05-01T23:58:34.850Z,68.11
